createdAt,value
2023-08-15T07:00:18.651Z,393.75
2023-08-15T07:01:19.757Z,399.38
2023-08-15T07:02:19.771Z,444.38
2023-08-15T07:03:19.978Z,483.75
2023-08-15T07:04:19.924Z,523.12
2023-08-15T07:05:20.031Z,551.25
2023-08-15T07:06:20.100Z,568.12
2023-08-15T07:07:20.534Z,573.75
2023-08-15T07:08:20.308Z,607.50
2023-08-15T07:09:20.361Z,579.38
2023-08-15T07:10:20.483Z,585.00
2023-08-15T07:11:20.548Z,562.50
2023-08-15T07:12:20.815Z,596.25
2023-08-15T07:13:20.709Z,646.88
2023-08-15T07:14:20.779Z,675.00
2023-08-15T07:15:20.862Z,618.75
2023-08-15T07:16:20.973Z,585.00
2023-08-15T07:17:21.030Z,573.75
2023-08-15T07:18:21.112Z,624.38
2023-08-15T07:19:21.335Z,590.62
2023-08-15T07:20:21.334Z,585.00
2023-08-15T07:21:22.886Z,579.38
2023-08-15T07:22:22.336Z,534.38
2023-08-15T07:23:21.620Z,528.75
2023-08-15T07:24:21.797Z,511.88
2023-08-15T07:25:21.692Z,495.00
2023-08-15T07:26:21.814Z,438.75
2023-08-15T07:27:21.937Z,371.25
2023-08-15T07:28:21.938Z,371.25
2023-08-15T07:29:22.049Z,388.12
2023-08-15T07:30:22.094Z,410.62
2023-08-15T07:31:22.237Z,410.62
2023-08-15T07:32:22.434Z,388.12
2023-08-15T07:33:22.335Z,405.00
2023-08-15T07:34:22.390Z,393.75
2023-08-15T07:35:22.502Z,388.12
2023-08-15T07:36:22.562Z,388.12
2023-08-15T07:37:22.699Z,354.38
2023-08-15T07:38:22.716Z,354.38
2023-08-15T07:39:22.790Z,393.75
2023-08-15T07:40:22.889Z,388.12
2023-08-15T07:41:22.985Z,393.75
2023-08-15T07:42:23.439Z,388.12
2023-08-15T07:43:23.188Z,376.88
2023-08-15T07:44:23.248Z,393.75
2023-08-15T07:45:23.333Z,376.88
2023-08-15T07:46:23.562Z,393.75
2023-08-15T07:47:23.551Z,405.00
2023-08-15T07:48:23.640Z,461.25
2023-08-15T07:49:23.749Z,405.00
2023-08-15T07:50:23.820Z,371.25
2023-08-15T07:51:23.911Z,388.12
2023-08-15T07:52:24.122Z,438.75
2023-08-15T07:53:24.018Z,444.38
2023-08-15T07:54:24.098Z,455.62
2023-08-15T07:55:24.184Z,461.25
2023-08-15T07:56:24.263Z,472.50
2023-08-15T07:57:24.348Z,506.25
2023-08-15T07:58:24.806Z,545.62
2023-08-15T07:59:25.405Z,523.12
2023-08-15T08:00:24.774Z,551.25
2023-08-15T08:01:24.716Z,618.75
2023-08-15T08:02:25.471Z,691.88
2023-08-15T08:03:24.841Z,703.12
2023-08-15T08:04:24.905Z,686.25
2023-08-15T08:05:25.009Z,523.12
2023-08-15T08:06:38.840Z,585.00
2023-08-15T08:07:25.243Z,630.00
2023-08-15T08:08:25.241Z,596.25
2023-08-15T08:09:25.318Z,635.62
2023-08-15T08:10:25.371Z,697.50
2023-08-15T08:11:25.506Z,753.75
2023-08-15T08:12:25.578Z,810.00
2023-08-15T08:13:25.698Z,781.88
2023-08-15T08:14:25.699Z,753.75
2023-08-15T08:15:25.792Z,855.00
2023-08-15T08:16:25.923Z,1125.00
2023-08-15T08:17:26.003Z,1507.50
2023-08-15T08:18:26.050Z,1321.88
2023-08-15T08:19:26.109Z,1080.00
2023-08-15T08:20:26.182Z,973.12
2023-08-15T08:21:26.255Z,1175.62
2023-08-15T08:22:26.339Z,1293.75
2023-08-15T08:23:26.452Z,1035.00
2023-08-15T08:24:26.556Z,1046.25
2023-08-15T08:25:26.646Z,1125.00
2023-08-15T08:26:26.694Z,900.00
2023-08-15T08:27:26.760Z,714.38
2023-08-15T08:28:26.914Z,720.00
2023-08-15T08:29:26.958Z,793.12
2023-08-15T08:30:29.314Z,866.25
2023-08-15T08:31:27.155Z,1057.50
2023-08-15T08:32:27.220Z,978.75
2023-08-15T08:33:27.330Z,1108.12
2023-08-15T08:34:27.454Z,1125.00
2023-08-15T08:35:27.472Z,871.88
2023-08-15T08:36:27.663Z,748.12
2023-08-15T08:37:27.754Z,601.88
2023-08-15T08:38:28.564Z,708.75
2023-08-15T08:39:32.294Z,793.12
2023-08-15T08:40:27.924Z,731.25
2023-08-15T08:41:27.981Z,742.50
2023-08-15T08:42:28.352Z,945.00
2023-08-15T08:43:28.196Z,1006.88
2023-08-15T08:44:28.274Z,995.62
2023-08-15T08:45:28.426Z,1164.38
2023-08-15T08:46:28.426Z,1271.25
2023-08-15T08:47:28.510Z,1260.00
2023-08-15T08:48:28.577Z,1434.38
2023-08-15T08:49:28.718Z,1513.12
2023-08-15T08:50:28.741Z,1575.00
2023-08-15T08:51:28.831Z,1580.62
2023-08-15T08:52:28.871Z,1586.25
2023-08-15T08:53:29.000Z,1591.88
2023-08-15T08:54:46.812Z,1501.88
2023-08-15T08:55:30.075Z,1440.00
2023-08-15T08:56:29.222Z,1411.88
2023-08-15T08:57:29.306Z,1524.38
2023-08-15T08:58:29.410Z,1423.12
2023-08-15T08:59:29.505Z,1546.88
2023-08-15T09:00:29.610Z,1417.50
2023-08-15T09:01:29.702Z,1383.75
2023-08-15T09:02:29.786Z,1451.25
2023-08-15T09:03:29.929Z,1440.00
2023-08-15T09:04:29.909Z,1175.62
2023-08-15T09:05:30.062Z,1164.38
2023-08-15T09:06:30.071Z,1276.88
2023-08-15T09:07:30.234Z,1310.62
2023-08-15T09:08:30.246Z,1333.12
2023-08-15T09:09:30.346Z,1333.12
2023-08-15T09:10:30.475Z,1288.12
2023-08-15T09:11:30.474Z,1350.00
2023-08-15T09:12:30.585Z,1445.62
2023-08-15T09:13:30.623Z,1496.25
2023-08-15T09:14:30.708Z,1423.12
2023-08-15T09:15:33.781Z,1344.38
2023-08-15T09:16:30.880Z,1293.75
2023-08-15T09:17:30.984Z,1305.00
2023-08-15T09:18:31.033Z,1237.50
2023-08-15T09:19:31.136Z,1130.62
2023-08-15T09:20:31.277Z,1125.00
2023-08-15T09:21:31.304Z,1108.12
2023-08-15T09:22:31.364Z,1001.25
2023-08-15T09:23:31.433Z,1035.00
2023-08-15T09:24:31.515Z,1153.12
2023-08-15T09:25:31.642Z,1108.12
2023-08-15T09:26:31.672Z,956.25
2023-08-15T09:27:31.724Z,933.75
2023-08-15T09:28:31.808Z,1029.38
2023-08-15T09:29:31.871Z,1091.25
2023-08-15T09:30:31.962Z,1012.50
2023-08-15T09:31:32.062Z,995.62
2023-08-15T09:32:32.116Z,1080.00
2023-08-15T09:33:32.218Z,1181.25
2023-08-15T09:34:32.238Z,1119.38
2023-08-15T09:35:32.491Z,990.00
2023-08-15T09:36:36.109Z,911.25
2023-08-15T09:37:32.536Z,973.12
2023-08-15T09:38:32.721Z,990.00
2023-08-15T09:39:32.719Z,1091.25
2023-08-15T09:40:33.124Z,1192.50
2023-08-15T09:41:32.860Z,1265.62
2023-08-15T09:42:32.978Z,1333.12
2023-08-15T09:43:33.048Z,1316.25
2023-08-15T09:44:33.115Z,1299.38
2023-08-15T09:45:33.220Z,1271.25
2023-08-15T09:46:33.305Z,1220.62
2023-08-15T09:47:33.410Z,1248.75
2023-08-15T09:48:33.443Z,1288.12
2023-08-15T09:49:33.585Z,1254.38
2023-08-15T09:50:33.718Z,1237.50
2023-08-15T09:51:33.727Z,1411.88
2023-08-15T09:52:33.805Z,1485.00
2023-08-15T09:53:33.873Z,1546.88
2023-08-15T09:54:33.951Z,1456.88
2023-08-15T09:55:34.042Z,1068.75
2023-08-15T09:56:34.227Z,1108.12
2023-08-15T09:57:34.205Z,1625.62
2023-08-15T09:58:34.276Z,1800.00
2023-08-15T09:59:34.360Z,1816.88
2023-08-15T10:00:34.468Z,1783.12
2023-08-15T10:01:34.547Z,2278.12
2023-08-15T10:02:34.654Z,2154.38
2023-08-15T10:03:34.724Z,4966.88
2023-08-15T10:04:34.762Z,1935.00
2023-08-15T10:05:35.085Z,4106.25
2023-08-15T10:06:34.950Z,5085.00
2023-08-15T10:07:35.002Z,2424.38
2023-08-15T10:08:35.105Z,1861.88
2023-08-15T10:09:35.141Z,3555.00
2023-08-15T10:10:35.229Z,3560.62
2023-08-15T10:11:35.311Z,2643.75
2023-08-15T10:12:35.397Z,3555.00
2023-08-15T10:13:35.480Z,3549.38
2023-08-15T10:14:35.540Z,2553.75
2023-08-15T10:15:35.621Z,3330.00
2023-08-15T10:16:35.836Z,3442.50
2023-08-15T10:17:35.956Z,4320.00
2023-08-15T10:18:35.911Z,4320.00
2023-08-15T10:19:35.930Z,4342.50
2023-08-15T10:20:36.004Z,4286.25
2023-08-15T10:21:36.089Z,4280.62
2023-08-15T10:22:36.165Z,3982.50
2023-08-15T10:23:36.257Z,4168.12
2023-08-15T10:24:36.352Z,4365.00
2023-08-15T10:25:36.464Z,3768.75
2023-08-15T10:26:36.501Z,4365.00
2023-08-15T10:27:36.602Z,4145.62
2023-08-15T10:28:36.702Z,3256.88
2023-08-15T10:29:36.762Z,3931.88
2023-08-15T10:30:37.027Z,4083.75
2023-08-15T10:31:36.936Z,4280.62
2023-08-15T10:32:37.061Z,4218.75
2023-08-15T10:33:37.099Z,4021.88
2023-08-15T10:34:37.152Z,3971.25
2023-08-15T10:35:37.278Z,3611.25
2023-08-15T10:36:37.311Z,3414.38
2023-08-15T10:37:37.428Z,3712.50
2023-08-15T10:38:37.469Z,3982.50
2023-08-15T10:39:37.564Z,3909.38
2023-08-15T10:40:37.605Z,4196.25
2023-08-15T10:41:37.666Z,4314.38
2023-08-15T10:42:37.800Z,4190.62
2023-08-15T10:43:37.851Z,4072.50
2023-08-15T10:44:37.956Z,3926.25
2023-08-15T10:45:37.994Z,4168.12
2023-08-15T10:46:38.126Z,4314.38
2023-08-15T10:47:38.190Z,4263.75
2023-08-15T10:48:41.080Z,3718.12
2023-08-15T10:49:38.270Z,3898.12
2023-08-15T10:50:38.362Z,4246.88
2023-08-15T10:51:38.450Z,4342.50
2023-08-15T10:52:38.557Z,4286.25
2023-08-15T10:53:38.617Z,4325.62
2023-08-15T10:54:38.735Z,3976.88
2023-08-15T10:55:38.786Z,3166.88
2023-08-15T10:56:38.871Z,3858.75
2023-08-15T10:57:38.911Z,4230.00
2023-08-15T10:58:41.298Z,4398.75
2023-08-15T10:59:39.121Z,4471.88
2023-08-15T11:00:39.200Z,4511.25
2023-08-15T11:01:39.479Z,4443.75
2023-08-15T11:02:39.405Z,4005.00
2023-08-15T11:03:39.810Z,4033.12
2023-08-15T11:04:40.711Z,4415.62
2023-08-15T11:05:39.631Z,4376.25
2023-08-15T11:06:39.671Z,4488.75
2023-08-15T11:07:39.752Z,4179.38
2023-08-15T11:08:39.913Z,3420.00
2023-08-15T11:09:39.930Z,4567.50
2023-08-15T11:10:40.470Z,4117.50
2023-08-15T11:11:40.259Z,4415.62
2023-08-15T11:12:40.198Z,4443.75
2023-08-15T11:13:40.354Z,4398.75
2023-08-15T11:14:40.395Z,4702.50
2023-08-15T11:15:41.144Z,4117.50
2023-08-15T11:16:40.562Z,1479.38
2023-08-15T11:17:40.626Z,1530.00
2023-08-15T11:18:40.684Z,2857.50
2023-08-15T11:19:40.786Z,1822.50
2023-08-15T11:20:40.819Z,1215.00
2023-08-15T11:21:40.893Z,1119.38
2023-08-15T11:22:41.070Z,1254.38
2023-08-15T11:23:41.050Z,1985.62
2023-08-15T11:24:41.220Z,2238.75
2023-08-15T11:25:41.263Z,2424.38
2023-08-15T11:26:41.377Z,2784.38
2023-08-15T11:27:41.396Z,3240.00
2023-08-15T11:28:41.462Z,2041.88
2023-08-15T11:29:41.604Z,3110.62
2023-08-15T11:30:41.626Z,3043.12
2023-08-15T11:31:42.868Z,3380.62
2023-08-15T11:32:41.895Z,2520.00
2023-08-15T11:33:41.871Z,2913.75
2023-08-15T11:34:41.951Z,2739.38
2023-08-15T11:35:42.038Z,2880.00
2023-08-15T11:36:42.124Z,2019.38
2023-08-15T11:37:42.191Z,2176.88
2023-08-15T11:38:42.298Z,1546.88
2023-08-15T11:39:42.369Z,1490.62
2023-08-15T11:40:42.435Z,1473.75
2023-08-15T11:41:42.569Z,1276.88
2023-08-15T11:42:42.613Z,1158.75
2023-08-15T11:43:42.690Z,1113.75
2023-08-15T11:44:42.774Z,1096.88
2023-08-15T11:45:42.870Z,1158.75
2023-08-15T11:47:43.113Z,1395.00
2023-08-15T11:48:43.086Z,1726.88
2023-08-15T11:49:46.476Z,1873.12
2023-08-15T11:50:44.954Z,2120.62
2023-08-15T11:51:43.312Z,2368.12
2023-08-15T11:52:43.405Z,2413.12
2023-08-15T11:53:43.483Z,2261.25
2023-08-15T11:54:43.629Z,2244.38
2023-08-15T11:55:43.715Z,2030.62
2023-08-15T11:56:43.727Z,1777.50
2023-08-15T11:57:43.832Z,2008.12
2023-08-15T11:58:44.715Z,1906.88
2023-08-15T11:59:43.963Z,2469.38
2023-08-15T12:00:44.074Z,2351.25
2023-08-15T12:01:44.186Z,2480.62
2023-08-15T12:02:44.232Z,2565.00
2023-08-15T12:03:44.300Z,2463.75
2023-08-15T12:04:44.346Z,2497.50
2023-08-15T12:05:44.437Z,2514.38
2023-08-15T12:06:44.528Z,2598.75
2023-08-15T12:07:44.592Z,2570.62
2023-08-15T12:08:46.272Z,2756.25
2023-08-15T12:09:44.745Z,2565.00
2023-08-15T12:10:44.849Z,2036.25
2023-08-15T12:11:44.910Z,2266.88
2023-08-15T12:12:44.965Z,2019.38
2023-08-15T12:13:45.030Z,1760.62
2023-08-15T12:14:50.837Z,1766.25
2023-08-15T12:15:45.282Z,1372.50
2023-08-15T12:16:45.247Z,1288.12
2023-08-15T12:17:45.331Z,1231.88
2023-08-15T12:18:45.404Z,1226.25
2023-08-15T12:19:45.462Z,1209.38
2023-08-15T12:20:45.585Z,1192.50
2023-08-15T12:21:45.624Z,1170.00
2023-08-15T12:22:46.019Z,1288.12
2023-08-15T12:23:45.790Z,1501.88
2023-08-15T12:24:45.877Z,1265.62
2023-08-15T12:25:45.937Z,1620.00
2023-08-15T12:26:46.047Z,2205.00
2023-08-15T12:27:46.097Z,1473.75
2023-08-15T12:28:46.166Z,2216.25
2023-08-15T12:30:13.147Z,1704.38
2023-08-15T12:30:46.405Z,1895.62
2023-08-15T12:31:46.465Z,2486.25
2023-08-15T12:32:47.135Z,2559.38
2023-08-15T12:33:47.906Z,2986.88
2023-08-15T12:34:46.622Z,3127.50
2023-08-15T12:35:48.361Z,2902.50
2023-08-15T12:36:46.787Z,2936.25
2023-08-15T12:37:46.857Z,3003.75
2023-08-15T12:38:46.942Z,2840.62
2023-08-15T12:39:47.017Z,2851.88
2023-08-15T12:40:47.125Z,2610.00
2023-08-15T12:41:47.186Z,2745.00
2023-08-15T12:42:47.306Z,2778.75
2023-08-15T12:43:47.354Z,2756.25
2023-08-15T12:44:47.604Z,2806.88
2023-08-15T12:45:47.565Z,2610.00
2023-08-15T12:46:48.009Z,2660.62
2023-08-15T12:47:47.743Z,3144.38
2023-08-15T12:48:47.826Z,3155.62
2023-08-15T12:49:47.880Z,3211.88
2023-08-15T12:50:47.965Z,3262.50
2023-08-15T12:51:48.133Z,2806.88
2023-08-15T12:52:48.104Z,2784.38
2023-08-15T12:53:48.224Z,2998.12
2023-08-15T12:54:48.262Z,3335.62
2023-08-15T12:55:48.334Z,2930.62
2023-08-15T12:56:48.452Z,2761.88
2023-08-15T12:57:48.484Z,2722.50
2023-08-15T12:58:48.581Z,2531.25
2023-08-15T12:59:48.671Z,2660.62
2023-08-15T13:00:48.817Z,2520.00
2023-08-15T13:01:48.867Z,2649.38
2023-08-15T13:02:48.932Z,2508.75
2023-08-15T13:03:49.025Z,2587.50
2023-08-15T13:04:49.102Z,2604.38
2023-08-15T13:05:49.204Z,2660.62
2023-08-15T13:06:49.251Z,2497.50
2023-08-15T13:07:49.369Z,2587.50
2023-08-15T13:08:49.413Z,2671.88
2023-08-15T13:09:49.501Z,2677.50
2023-08-15T13:10:49.565Z,2801.25
2023-08-15T13:11:49.679Z,2767.50
2023-08-15T13:12:49.740Z,3290.62
2023-08-15T13:13:49.826Z,3330.00
2023-08-15T13:14:49.992Z,3442.50
2023-08-15T13:15:50.007Z,3352.50
2023-08-15T13:16:50.141Z,3448.12
2023-08-15T13:17:50.204Z,3363.75
2023-08-15T13:18:50.315Z,3358.12
2023-08-15T13:19:50.370Z,3667.50
2023-08-15T13:20:50.447Z,3318.75
2023-08-15T13:21:50.747Z,3301.88
2023-08-15T13:22:50.626Z,3386.25
2023-08-15T13:23:51.212Z,3166.88
2023-08-15T13:24:50.788Z,3661.88
2023-08-15T13:25:50.862Z,3673.12
2023-08-15T13:26:50.966Z,3358.12
2023-08-15T13:27:51.008Z,2148.75
2023-08-15T13:28:51.149Z,1518.75
2023-08-15T13:29:51.177Z,1462.50
2023-08-15T13:30:51.263Z,1980.00
2023-08-15T13:31:51.361Z,2812.50
2023-08-15T13:32:51.413Z,2081.25
2023-08-15T13:33:51.473Z,2604.38
2023-08-15T13:34:51.571Z,3397.50
2023-08-15T13:35:52.201Z,1935.00
2023-08-15T13:36:51.740Z,3256.88
2023-08-15T13:37:51.848Z,2058.75
2023-08-15T13:38:51.956Z,2491.88
2023-08-15T13:39:51.951Z,1856.25
2023-08-15T13:40:52.032Z,1676.25
2023-08-15T13:41:52.125Z,1591.88
2023-08-15T13:42:53.902Z,1850.62
2023-08-15T13:43:52.287Z,1310.62
2023-08-15T13:44:52.364Z,1344.38
2023-08-15T13:45:52.444Z,1760.62
2023-08-15T13:46:52.586Z,2030.62
2023-08-15T13:47:52.686Z,1766.25
2023-08-15T13:48:52.682Z,1631.25
2023-08-15T13:49:52.837Z,1507.50
2023-08-15T13:50:52.861Z,1890.00
2023-08-15T13:51:52.972Z,1878.75
2023-08-15T13:52:53.039Z,1451.25
2023-08-15T13:53:53.110Z,1333.12
2023-08-15T13:54:53.216Z,1310.62
2023-08-15T13:55:53.250Z,1462.50
2023-08-15T13:56:55.601Z,1760.62
2023-08-15T13:57:53.763Z,1884.38
2023-08-15T13:58:53.470Z,1569.38
2023-08-15T13:59:53.552Z,1614.38
2023-08-15T14:00:53.760Z,1563.75
2023-08-15T14:01:53.728Z,1704.38
2023-08-15T14:02:53.913Z,1530.00
2023-08-15T14:03:53.893Z,1957.50
2023-08-15T14:04:54.013Z,1288.12
2023-08-15T14:05:54.074Z,1327.50
2023-08-15T14:06:54.114Z,1400.62
2023-08-15T14:07:54.192Z,1344.38
2023-08-15T14:08:54.261Z,1305.00
2023-08-15T14:09:56.533Z,1299.38
2023-08-15T14:10:54.429Z,1271.25
2023-08-15T14:11:54.541Z,1231.88
2023-08-15T14:12:54.645Z,1226.25
2023-08-15T14:13:54.672Z,1243.12
2023-08-15T14:14:54.797Z,2120.62
2023-08-15T14:15:54.842Z,2362.50
2023-08-15T14:16:55.063Z,2053.12
2023-08-15T14:17:55.027Z,1878.75
2023-08-15T14:18:55.073Z,1951.88
2023-08-15T14:19:55.130Z,1636.88
2023-08-15T14:20:55.199Z,1940.62
2023-08-15T14:21:55.275Z,1923.75
2023-08-15T14:22:55.357Z,1552.50
2023-08-15T14:23:55.462Z,1625.62
2023-08-15T14:24:55.602Z,1192.50
2023-08-15T14:25:55.655Z,1080.00
2023-08-15T14:26:56.651Z,1063.12
2023-08-15T14:27:55.790Z,1006.88
2023-08-15T14:28:55.877Z,1046.25
2023-08-15T14:29:56.011Z,990.00
2023-08-15T14:30:56.069Z,984.38
2023-08-15T14:31:56.123Z,1001.25
2023-08-15T14:32:56.311Z,995.62
2023-08-15T14:33:56.292Z,1040.62
2023-08-15T14:34:56.478Z,1012.50
2023-08-15T14:35:56.492Z,984.38
2023-08-15T14:36:56.563Z,967.50
2023-08-15T14:37:56.648Z,956.25
2023-08-15T14:38:56.720Z,922.50
2023-08-15T14:39:56.807Z,916.88
2023-08-15T14:40:56.860Z,894.38
2023-08-15T14:41:56.984Z,883.12
2023-08-15T14:42:57.057Z,900.00
2023-08-15T14:43:57.081Z,894.38
2023-08-15T14:44:57.152Z,877.50
2023-08-15T14:45:57.246Z,843.75
2023-08-15T14:46:57.401Z,821.25
2023-08-15T14:47:57.420Z,804.38
2023-08-15T14:48:59.470Z,804.38
2023-08-15T14:49:57.603Z,810.00
2023-08-15T14:50:57.623Z,821.25
2023-08-15T14:51:57.768Z,826.88
2023-08-15T14:52:57.803Z,826.88
2023-08-15T14:53:57.920Z,826.88
2023-08-15T14:54:57.998Z,821.25
2023-08-15T14:55:58.154Z,815.62
2023-08-15T14:56:58.166Z,804.38
2023-08-15T14:57:58.238Z,798.75
2023-08-15T14:58:58.315Z,804.38
2023-08-15T14:59:58.379Z,815.62
2023-08-15T15:00:58.476Z,826.88
2023-08-15T15:01:58.608Z,832.50
2023-08-15T15:02:58.698Z,838.12
2023-08-15T15:03:58.728Z,826.88
2023-08-15T15:04:58.770Z,838.12
2023-08-15T15:05:58.843Z,843.75
2023-08-15T15:06:58.933Z,860.62
2023-08-15T15:07:59.028Z,866.25
2023-08-15T15:08:59.066Z,871.88
2023-08-15T15:09:59.181Z,866.25
2023-08-15T15:10:59.243Z,855.00
2023-08-15T15:11:59.350Z,826.88
2023-08-15T15:12:59.421Z,798.75
2023-08-15T15:13:59.485Z,776.25
2023-08-15T15:14:59.573Z,753.75
2023-08-15T15:15:59.686Z,731.25
2023-08-15T15:16:59.739Z,703.12
2023-08-15T15:17:59.866Z,675.00
2023-08-15T15:18:59.899Z,652.50
2023-08-15T15:19:59.988Z,641.25
2023-08-15T15:21:01.904Z,641.25
2023-08-15T15:22:00.144Z,646.88
2023-08-15T15:23:00.210Z,646.88
2023-08-15T15:24:00.288Z,635.62
2023-08-15T15:25:00.355Z,618.75
2023-08-15T15:26:00.417Z,596.25
2023-08-15T15:27:00.502Z,579.38
2023-08-15T15:28:01.413Z,573.75
2023-08-15T15:29:00.637Z,573.75
2023-08-15T15:30:00.752Z,573.75
2023-08-15T15:31:00.842Z,585.00
2023-08-15T15:32:00.937Z,596.25
2023-08-15T15:33:01.006Z,618.75
2023-08-15T15:34:01.042Z,635.62
2023-08-15T15:35:01.272Z,652.50
2023-08-15T15:36:01.231Z,669.38
2023-08-15T15:37:01.341Z,680.62
2023-08-15T15:38:01.415Z,691.88
2023-08-15T15:39:01.481Z,697.50
2023-08-15T15:40:01.637Z,703.12
2023-08-15T15:41:01.639Z,703.12
2023-08-15T15:42:01.783Z,697.50
2023-08-15T15:43:01.800Z,686.25
2023-08-15T15:44:01.915Z,675.00
2023-08-15T15:45:02.059Z,680.62
2023-08-15T15:46:02.108Z,703.12
2023-08-15T15:47:02.220Z,742.50
2023-08-15T15:48:02.260Z,793.12
2023-08-15T15:49:02.303Z,821.25
2023-08-15T15:50:02.414Z,860.62
2023-08-15T15:51:02.496Z,916.88
2023-08-15T15:52:02.558Z,933.75
2023-08-15T15:53:02.635Z,933.75
2023-08-15T15:54:02.736Z,922.50
2023-08-15T15:55:02.833Z,877.50
2023-08-15T15:56:02.919Z,871.88
2023-08-15T15:57:02.984Z,883.12
2023-08-15T15:58:03.039Z,860.62
2023-08-15T15:59:03.148Z,838.12
2023-08-15T16:00:03.270Z,810.00
2023-08-15T16:01:03.450Z,765.00
2023-08-15T16:02:03.395Z,742.50
2023-08-15T16:03:03.519Z,720.00
2023-08-15T16:04:03.557Z,663.75
2023-08-15T16:05:03.615Z,641.25
2023-08-15T16:06:03.699Z,630.00
2023-08-15T16:07:03.752Z,641.25
2023-08-15T16:08:03.816Z,686.25
2023-08-15T16:09:03.960Z,720.00
2023-08-15T16:10:03.980Z,736.88
2023-08-15T16:11:04.107Z,731.25
2023-08-15T16:12:04.173Z,714.38
2023-08-15T16:13:04.233Z,703.12
2023-08-15T16:14:04.340Z,697.50
2023-08-15T16:15:04.419Z,714.38
2023-08-15T16:16:04.552Z,748.12
2023-08-15T16:17:04.584Z,697.50
2023-08-15T16:18:04.707Z,680.62
2023-08-15T16:19:04.724Z,675.00
2023-08-15T16:20:04.790Z,646.88
2023-08-15T16:21:05.008Z,618.75
2023-08-15T16:22:04.982Z,590.62
2023-08-15T16:23:05.069Z,573.75
2023-08-15T16:24:05.152Z,562.50
2023-08-15T16:25:05.227Z,562.50
2023-08-15T16:26:05.318Z,562.50
2023-08-15T16:27:05.390Z,556.88
2023-08-15T16:28:05.445Z,596.25
2023-08-15T16:29:05.503Z,613.12
2023-08-15T16:30:16.380Z,540.00
2023-08-15T16:31:05.682Z,528.75
2023-08-15T16:32:05.765Z,545.62
2023-08-15T16:33:05.926Z,534.38
2023-08-15T16:34:05.915Z,534.38
2023-08-15T16:35:05.991Z,528.75
2023-08-15T16:36:06.091Z,511.88
2023-08-15T16:37:06.242Z,500.62
2023-08-15T16:38:06.233Z,472.50
2023-08-15T16:39:06.343Z,466.88
2023-08-15T16:40:06.423Z,466.88
2023-08-15T16:41:06.524Z,461.25
2023-08-15T16:42:06.629Z,455.62
2023-08-15T16:43:06.716Z,438.75
2023-08-15T16:44:06.811Z,450.00
2023-08-15T16:45:06.884Z,472.50
2023-08-15T16:46:07.013Z,495.00
2023-08-15T16:47:07.123Z,579.38
2023-08-15T16:48:07.172Z,556.88
2023-08-15T16:49:07.220Z,523.12
2023-08-15T16:50:07.309Z,506.25
2023-08-15T16:51:07.402Z,489.38
2023-08-15T16:52:07.509Z,511.88
2023-08-15T16:53:07.574Z,540.00
2023-08-15T16:54:07.687Z,528.75
2023-08-15T16:55:07.811Z,483.75
2023-08-15T16:56:07.823Z,495.00
2023-08-15T16:57:07.892Z,461.25
2023-08-15T16:58:08.018Z,421.88
2023-08-15T16:59:08.102Z,388.12
2023-08-15T17:00:08.193Z,365.62
2023-08-15T17:01:08.310Z,393.75
2023-08-15T17:02:08.331Z,360.00
2023-08-15T17:03:08.450Z,360.00
2023-08-15T17:04:08.584Z,382.50
2023-08-15T17:05:08.554Z,376.88
2023-08-15T17:06:08.601Z,365.62
2023-08-15T17:07:08.712Z,427.50
2023-08-15T17:08:08.759Z,540.00
2023-08-15T17:09:08.908Z,680.62
2023-08-15T17:10:09.004Z,556.88
2023-08-15T17:11:09.072Z,444.38
2023-08-15T17:12:09.122Z,416.25
2023-08-15T17:13:09.183Z,466.88
2023-08-15T17:14:09.264Z,382.50
2023-08-15T17:15:09.375Z,360.00
2023-08-15T17:16:09.441Z,331.88
2023-08-15T17:17:09.494Z,331.88
2023-08-15T17:18:09.692Z,343.12
2023-08-15T17:19:09.694Z,376.88
2023-08-15T17:20:09.762Z,427.50
2023-08-15T17:21:09.864Z,421.88
2023-08-15T17:22:09.922Z,444.38
2023-08-15T17:23:10.059Z,444.38
2023-08-15T17:24:10.145Z,427.50
2023-08-15T17:25:10.190Z,489.38
2023-08-15T17:26:10.294Z,540.00
2023-08-15T17:27:10.345Z,590.62
2023-08-15T17:28:10.434Z,568.12
2023-08-15T17:29:10.539Z,500.62
2023-08-15T17:30:10.622Z,388.12
2023-08-15T17:31:10.789Z,382.50
2023-08-15T17:32:11.376Z,348.75
2023-08-15T17:33:10.930Z,382.50
2023-08-15T17:34:11.016Z,511.88
2023-08-15T17:35:11.021Z,523.12
2023-08-15T17:36:11.559Z,376.88
2023-08-15T17:37:11.198Z,253.12
2023-08-15T17:38:11.372Z,236.25
2023-08-15T17:39:11.515Z,230.62
2023-08-15T17:40:11.434Z,225.00
2023-08-15T17:41:11.555Z,219.38
2023-08-15T17:42:11.622Z,213.75
2023-08-15T17:43:11.676Z,236.25
2023-08-15T17:44:11.750Z,202.50
2023-08-15T17:45:11.839Z,219.38
2023-08-15T17:46:12.735Z,230.62
2023-08-15T17:47:12.051Z,348.75
2023-08-15T17:48:12.124Z,292.50
2023-08-15T17:49:12.206Z,315.00
2023-08-15T17:50:12.377Z,174.38
2023-08-15T17:51:12.399Z,219.38
2023-08-15T17:52:12.479Z,168.75
2023-08-15T17:53:12.608Z,168.75
2023-08-15T17:54:12.634Z,180.00
2023-08-15T17:55:12.735Z,180.00
2023-08-15T17:56:12.809Z,196.88
2023-08-15T17:57:12.940Z,174.38
2023-08-15T17:58:12.987Z,174.38
2023-08-15T17:59:13.111Z,168.75
2023-08-15T18:00:13.973Z,157.50
2023-08-15T18:01:13.247Z,151.88
2023-08-15T18:02:13.345Z,146.25
2023-08-15T18:03:13.526Z,140.62
2023-08-15T18:04:13.534Z,135.00
2023-08-15T18:05:13.535Z,123.75
2023-08-15T18:06:13.652Z,123.75
2023-08-15T18:07:13.743Z,118.12
2023-08-15T18:08:13.825Z,118.12
2023-08-15T18:09:13.919Z,118.12
2023-08-15T18:10:14.057Z,112.50
2023-08-15T18:11:14.116Z,106.88
2023-08-15T18:12:14.134Z,106.88
2023-08-15T18:13:14.202Z,106.88
2023-08-15T18:14:14.290Z,101.25
2023-08-15T18:15:14.397Z,101.25
2023-08-15T18:16:14.469Z,95.62
2023-08-15T18:17:15.340Z,90.00
2023-08-15T18:18:14.710Z,84.38
2023-08-15T18:19:14.748Z,78.75
2023-08-15T18:20:14.779Z,78.75
2023-08-15T18:21:14.846Z,73.12
2023-08-15T18:22:15.066Z,67.50
2023-08-15T18:23:14.999Z,67.50
2023-08-15T18:24:15.074Z,61.88
2023-08-15T18:25:15.155Z,61.88
2023-08-15T18:26:15.257Z,56.25
2023-08-15T18:27:15.316Z,56.25
2023-08-15T18:28:15.379Z,56.25
2023-08-15T18:29:15.481Z,50.62
2023-08-15T18:30:15.514Z,50.62
2023-08-15T18:31:15.642Z,45.00
2023-08-15T18:32:15.689Z,45.00
2023-08-15T18:33:15.852Z,45.00
2023-08-15T18:34:15.867Z,39.38
2023-08-15T18:35:15.967Z,39.38
2023-08-15T18:36:16.035Z,39.38
2023-08-15T18:37:16.094Z,33.75
2023-08-15T18:38:16.166Z,33.75
2023-08-15T18:39:16.274Z,33.75
2023-08-15T18:40:16.329Z,28.12
2023-08-15T18:41:16.442Z,28.12
2023-08-15T18:42:16.516Z,28.12
2023-08-15T18:43:17.510Z,22.50
2023-08-15T18:44:16.717Z,22.50
2023-08-15T18:45:16.800Z,22.50
2023-08-15T18:46:16.925Z,22.50
2023-08-15T18:47:17.011Z,16.88
2023-08-15T18:48:17.148Z,16.88
2023-08-15T18:49:17.163Z,16.88
2023-08-15T18:50:17.225Z,16.88
2023-08-15T18:51:17.311Z,16.88
2023-08-15T18:52:17.414Z,11.25
2023-08-15T18:53:17.445Z,11.25
2023-08-15T18:54:17.562Z,11.25
2023-08-15T18:55:17.689Z,11.25
2023-08-15T18:56:17.701Z,11.25
2023-08-15T18:57:17.807Z,5.62
2023-08-15T18:58:17.874Z,5.62
2023-08-15T18:59:17.993Z,5.62
